Rechercher aéroport 
image banner adimage banner adimage banner ad
image banner ad

KFOT - Rohnerville

Situé à Fortuna, United States

ICAO - FOT, IATA -

Données fournies par Airmate  

Information générale

Coordonnées: N40°33'14" W124°7'58"
Élévation : 393 feet MSL.
Variation magnétique : 17° East
Voir autres Aéroports à California

Données opérationnelles

Special qualification required
Heure actuelle UTC:
Heure actuelle locale:
Météo
METAR: KFOT 210115Z AUTO 33007KT 9SM FEW100 17/10 A3002 RMK AO1
Voir NOTAMs / SUP AIP / TFR affectant cet aéroport [VIEW]
Fréquences de communication: [VIEW]

Pistes:

Identifiant RWYQFULongueur (ft)Largeur (ft)SurfaceLDA (ft)
11127°4005100ASPH
29307°4005100ASPH

Coordonnées de l'aéroport

Adresse: Fortuna United States

Vue satellite de KFOT